createdAt,value
2018-09-03T00:00:40.190Z,1.00
2018-09-03T00:03:10.767Z,1.00
2018-09-03T00:05:41.928Z,1.00
2018-09-03T00:08:12.496Z,1.00
2018-09-03T00:10:43.229Z,1.00
2018-09-03T00:13:14.062Z,1.00
2018-09-03T00:15:44.614Z,1.00
2018-09-03T00:18:15.063Z,1.00
2018-09-03T00:20:45.304Z,1.00
2018-09-03T00:23:15.959Z,1.00
2018-09-03T00:25:46.569Z,1.00
2018-09-03T00:28:17.284Z,1.00
2018-09-03T00:30:48.077Z,1.00
2018-09-03T00:33:23.829Z,1.00
2018-09-03T00:38:01.362Z,1.00
2018-09-03T00:40:36.958Z,1.00
2018-09-03T00:43:12.485Z,1.00
2018-09-03T00:45:47.924Z,1.00
2018-09-03T00:48:18.242Z,1.00
2018-09-03T00:50:48.799Z,1.00
2018-09-03T00:53:19.296Z,1.00
2018-09-03T00:55:49.636Z,1.00
2018-09-03T00:58:20.156Z,1.00
2018-09-03T01:00:50.793Z,1.00
2018-09-03T01:03:21.220Z,1.00
2018-09-03T01:05:51.951Z,1.00
2018-09-03T01:08:22.383Z,1.00
2018-09-03T01:10:52.833Z,1.00
2018-09-03T01:13:23.550Z,1.00
2018-09-03T01:15:54.100Z,1.00
2018-09-03T01:18:24.397Z,1.00
2018-09-03T01:20:54.959Z,1.00
2018-09-03T01:23:25.337Z,1.00
2018-09-03T01:25:56.116Z,1.00
2018-09-03T01:28:26.479Z,1.00
2018-09-03T01:30:57.331Z,1.00
2018-09-03T01:33:28.013Z,1.00
2018-09-03T01:35:58.436Z,1.00
2018-09-03T01:38:29.007Z,1.00
2018-09-03T01:40:59.796Z,1.00
2018-09-03T01:43:30.343Z,1.00
2018-09-03T01:46:00.913Z,1.00
2018-09-03T01:48:31.485Z,1.00
2018-09-03T01:51:02.469Z,1.00
2018-09-03T01:53:33.584Z,1.00
2018-09-03T01:56:04.402Z,1.00
2018-09-03T01:58:34.671Z,1.00
2018-09-03T02:01:05.072Z,1.00
2018-09-03T02:03:35.816Z,1.00
2018-09-03T02:06:06.573Z,1.00
2018-09-03T02:08:37.405Z,1.00
2018-09-03T02:11:07.746Z,1.00
2018-09-03T02:13:39.033Z,1.00
2018-09-03T02:16:09.498Z,1.00
2018-09-03T02:18:40.718Z,1.00
2018-09-03T02:21:11.452Z,1.00
2018-09-03T02:23:42.960Z,1.00
2018-09-03T02:26:13.612Z,1.00
2018-09-03T02:28:44.045Z,1.00
2018-09-03T02:31:14.583Z,1.00
2018-09-03T02:33:45.076Z,1.00
2018-09-03T02:36:15.596Z,1.00
2018-09-03T02:38:46.739Z,1.00
2018-09-03T02:41:16.847Z,1.00
2018-09-03T02:43:47.200Z,1.00
2018-09-03T02:46:18.050Z,1.00
2018-09-03T02:48:48.953Z,1.00
2018-09-03T02:51:19.475Z,1.00
2018-09-03T02:53:49.683Z,1.00
2018-09-03T02:56:20.689Z,1.00
2018-09-03T02:58:51.091Z,1.00
2018-09-03T03:01:21.739Z,1.00
2018-09-03T03:03:52.556Z,1.00
2018-09-03T03:06:23.103Z,1.00
2018-09-03T03:08:53.637Z,1.00
2018-09-03T03:11:24.401Z,1.00
2018-09-03T03:13:54.489Z,1.00
2018-09-03T03:16:25.114Z,1.00
2018-09-03T03:18:55.421Z,1.00
2018-09-03T03:21:25.874Z,1.00
2018-09-03T03:23:56.250Z,1.00
2018-09-03T03:26:27.795Z,1.00
2018-09-03T03:28:58.185Z,1.00
2018-09-03T03:31:28.326Z,1.00
2018-09-03T03:33:58.419Z,1.00
2018-09-03T03:36:29.136Z,1.00
2018-09-03T03:38:59.499Z,1.00
2018-09-03T03:41:29.892Z,1.00
2018-09-03T03:44:00.279Z,1.00
2018-09-03T03:46:31.228Z,1.00
2018-09-03T03:49:01.747Z,1.00
2018-09-03T03:51:32.046Z,1.00
2018-09-03T03:54:02.108Z,1.00
2018-09-03T03:56:32.639Z,1.00
2018-09-03T03:59:03.183Z,1.00
2018-09-03T04:01:33.377Z,1.00
2018-09-03T04:04:03.800Z,1.00
2018-09-03T04:06:35.241Z,1.00
2018-09-03T04:09:07.958Z,1.00
2018-09-03T04:11:38.598Z,1.00
2018-09-03T04:14:09.403Z,1.00
2018-09-03T04:16:39.815Z,1.00
2018-09-03T04:19:10.204Z,1.00
2018-09-03T04:21:40.801Z,1.00
2018-09-03T04:24:11.360Z,1.00
2018-09-03T04:26:41.840Z,1.00
2018-09-03T04:29:12.153Z,1.00
2018-09-03T04:31:42.553Z,1.00
2018-09-03T04:34:13.336Z,1.00
2018-09-03T04:36:44.070Z,1.00
2018-09-03T04:39:14.487Z,1.00
2018-09-03T04:41:45.266Z,1.00
2018-09-03T04:44:15.828Z,1.00
2018-09-03T04:46:46.603Z,1.00
2018-09-03T04:49:17.451Z,1.00
2018-09-03T04:51:47.902Z,1.00
2018-09-03T04:54:18.419Z,1.00
2018-09-03T04:56:48.919Z,1.00
2018-09-03T04:59:19.203Z,1.00
2018-09-03T05:01:49.564Z,1.00
2018-09-03T05:04:20.357Z,1.00
2018-09-03T05:06:51.162Z,1.00
2018-09-03T05:09:21.692Z,1.00
2018-09-03T05:11:52.539Z,1.00
2018-09-03T05:14:23.067Z,1.00
2018-09-03T05:16:53.624Z,1.00
2018-09-03T05:19:23.802Z,1.00
2018-09-03T05:21:55.013Z,1.00
2018-09-03T05:24:25.231Z,1.00
2018-09-03T05:26:56.233Z,1.00
2018-09-03T05:29:26.847Z,1.00
2018-09-03T05:31:57.379Z,1.00
2018-09-03T05:34:27.679Z,1.00
2018-09-03T05:36:58.575Z,1.00
2018-09-03T05:39:29.079Z,1.00
2018-09-03T05:41:59.364Z,1.00
2018-09-03T05:44:29.889Z,1.00
2018-09-03T05:47:00.545Z,1.00
2018-09-03T05:49:31.058Z,1.00
2018-09-03T05:52:01.679Z,1.00
2018-09-03T05:54:32.274Z,1.00
2018-09-03T05:57:03.182Z,1.00
2018-09-03T05:59:33.481Z,1.00
2018-09-03T06:02:04.266Z,1.00
2018-09-03T06:04:34.937Z,1.00
2018-09-03T06:07:05.910Z,1.00
2018-09-03T06:09:37.184Z,1.00
2018-09-03T06:12:07.791Z,1.00
2018-09-03T06:14:37.985Z,1.00
2018-09-03T06:17:08.655Z,1.00
2018-09-03T06:19:39.242Z,1.00
2018-09-03T06:22:10.132Z,1.00
2018-09-03T06:24:40.916Z,1.00
2018-09-03T06:27:11.887Z,1.00
2018-09-03T06:29:42.609Z,1.00
2018-09-03T06:32:12.992Z,1.00
2018-09-03T06:34:43.492Z,1.00
2018-09-03T06:37:14.397Z,1.00
2018-09-03T06:39:44.488Z,1.00
2018-09-03T06:42:14.676Z,1.00
2018-09-03T06:44:44.782Z,1.00
2018-09-03T06:47:15.280Z,1.00
2018-09-03T06:49:45.543Z,1.00
2018-09-03T06:52:15.738Z,1.00
2018-09-03T06:54:46.150Z,1.00
2018-09-03T06:57:16.464Z,1.00
2018-09-03T06:59:46.586Z,1.00
2018-09-03T07:02:17.350Z,1.00
2018-09-03T07:04:47.924Z,1.00
2018-09-03T07:07:18.202Z,1.00
2018-09-03T07:09:48.370Z,1.00
2018-09-03T07:12:19.084Z,1.00
2018-09-03T07:14:49.490Z,1.00
2018-09-03T07:17:19.647Z,1.00
2018-09-03T07:19:49.760Z,1.00
2018-09-03T07:22:19.843Z,1.00
2018-09-03T07:24:50.840Z,1.00
2018-09-03T07:27:21.927Z,1.00
2018-09-03T07:29:52.857Z,1.00
2018-09-03T07:32:23.269Z,1.00
2018-09-03T07:34:53.373Z,1.00
2018-09-03T07:37:23.551Z,1.00
2018-09-03T07:39:54.476Z,1.00
2018-09-03T07:42:25.206Z,99.90
2018-09-03T07:44:56.216Z,99.90
2018-09-03T07:47:26.899Z,99.90
2018-09-03T07:49:57.829Z,99.90
2018-09-03T07:52:28.890Z,99.90
2018-09-03T07:54:59.899Z,99.90
2018-09-03T07:57:30.967Z,99.90
2018-09-03T08:00:02.423Z,99.90
2018-09-03T08:02:33.396Z,99.90
2018-09-03T08:05:04.215Z,99.90
2018-09-03T08:07:35.325Z,99.90
2018-09-03T08:10:07.716Z,99.90
2018-09-03T08:12:38.566Z,99.90
2018-09-03T08:15:09.636Z,99.90
2018-09-03T08:17:40.605Z,99.90
2018-09-03T08:20:11.867Z,99.90
2018-09-03T08:22:42.722Z,99.90
2018-09-03T08:25:13.469Z,99.90
2018-09-03T08:27:44.074Z,99.90
2018-09-03T08:30:15.356Z,99.90
2018-09-03T08:32:46.343Z,99.90
2018-09-03T08:35:17.275Z,99.90
2018-09-03T08:37:48.165Z,99.90
2018-09-03T08:40:19.384Z,99.90
2018-09-03T08:42:50.354Z,99.90
2018-09-03T08:45:21.541Z,99.90
2018-09-03T08:47:52.603Z,99.90
2018-09-03T08:50:23.456Z,99.90
2018-09-03T08:52:55.057Z,99.90
2018-09-03T08:55:26.404Z,99.90
2018-09-03T08:57:58.657Z,99.90
2018-09-03T09:00:29.781Z,99.90
2018-09-03T09:03:02.683Z,99.90
2018-09-03T09:05:33.384Z,99.90
2018-09-03T09:08:04.286Z,99.90
2018-09-03T09:10:35.308Z,99.90
2018-09-03T09:13:06.420Z,99.90
2018-09-03T09:15:37.281Z,99.90
2018-09-03T09:18:07.942Z,99.90
2018-09-03T09:20:38.629Z,99.90
2018-09-03T09:23:09.516Z,99.90
2018-09-03T09:25:40.233Z,99.90
2018-09-03T09:28:11.046Z,99.90
2018-09-03T09:30:41.952Z,99.90
2018-09-03T09:33:12.658Z,99.90
2018-09-03T09:35:43.653Z,99.90
2018-09-03T09:38:14.873Z,99.90
2018-09-03T09:40:45.818Z,99.90
2018-09-03T09:43:16.525Z,99.90
2018-09-03T09:45:47.372Z,99.90
2018-09-03T09:48:18.137Z,99.90
2018-09-03T09:50:48.695Z,99.90
2018-09-03T09:53:19.571Z,99.90
2018-09-03T09:55:50.169Z,99.90
2018-09-03T09:58:20.923Z,99.90
2018-09-03T10:00:56.797Z,99.90
2018-09-03T10:03:27.298Z,99.90
2018-09-03T10:05:57.865Z,99.90
2018-09-03T10:08:28.704Z,99.90
2018-09-03T10:10:59.250Z,99.90
2018-09-03T10:13:29.935Z,99.90
2018-09-03T10:16:00.456Z,99.90
2018-09-03T10:18:31.198Z,99.90
2018-09-03T10:21:01.785Z,99.90
2018-09-03T10:23:32.663Z,99.90
2018-09-03T10:26:03.363Z,99.90
2018-09-03T10:28:34.230Z,99.90
2018-09-03T10:31:04.769Z,99.90
2018-09-03T10:33:35.426Z,99.90
2018-09-03T10:36:06.460Z,99.90
2018-09-03T10:38:37.102Z,99.90
2018-09-03T10:41:07.697Z,99.90
2018-09-03T10:43:38.728Z,99.90
2018-09-03T10:46:09.465Z,99.90
2018-09-03T10:48:40.769Z,99.90
2018-09-03T10:51:11.561Z,99.90
2018-09-03T10:53:42.335Z,99.90
2018-09-03T10:56:13.031Z,99.90
2018-09-03T10:58:44.226Z,99.90
2018-09-03T11:01:15.037Z,99.90
2018-09-03T11:03:45.796Z,99.90
2018-09-03T11:06:16.657Z,99.90
2018-09-03T11:08:47.316Z,99.90
2018-09-03T11:11:17.959Z,99.90
2018-09-03T11:13:48.527Z,99.90
2018-09-03T11:16:19.188Z,99.90
2018-09-03T11:18:50.371Z,99.90
2018-09-03T11:21:21.060Z,99.90
2018-09-03T11:23:51.820Z,99.90
2018-09-03T11:26:22.485Z,99.90
2018-09-03T11:28:53.141Z,99.90
2018-09-03T11:31:23.813Z,99.90
2018-09-03T11:33:55.293Z,99.90
2018-09-03T11:36:26.074Z,99.90
2018-09-03T11:38:57.124Z,99.90
2018-09-03T11:41:28.179Z,99.90
2018-09-03T11:43:58.884Z,99.90
2018-09-03T11:46:29.562Z,99.90
2018-09-03T11:49:00.259Z,99.90
2018-09-03T11:51:31.277Z,99.90
2018-09-03T11:54:02.084Z,99.90
2018-09-03T11:56:32.862Z,99.90
2018-09-03T11:59:04.281Z,99.90
2018-09-03T12:01:35.044Z,99.90
2018-09-03T12:04:05.988Z,99.90
2018-09-03T12:06:37.080Z,99.90
2018-09-03T12:09:10.453Z,99.90
2018-09-03T12:11:41.604Z,99.90
2018-09-03T12:14:17.061Z,99.90
2018-09-03T12:16:47.800Z,99.90
2018-09-03T12:19:18.474Z,93.40
2018-09-03T12:21:49.442Z,99.90
2018-09-03T12:24:20.447Z,99.90
2018-09-03T12:26:51.543Z,99.90
2018-09-03T12:29:22.332Z,99.90
2018-09-03T12:31:53.588Z,99.90
2018-09-03T12:34:24.230Z,99.90
2018-09-03T12:36:55.047Z,99.90
2018-09-03T12:39:26.596Z,99.90
2018-09-03T12:41:57.469Z,99.90
2018-09-03T12:44:28.684Z,99.90
2018-09-03T12:46:59.732Z,99.90
2018-09-03T12:49:30.732Z,99.90
2018-09-03T12:52:03.403Z,99.90
2018-09-03T12:54:34.359Z,99.90
2018-09-03T12:57:05.394Z,99.90
2018-09-03T12:59:36.127Z,99.90
2018-09-03T13:02:07.013Z,99.90
2018-09-03T13:04:37.759Z,99.90
2018-09-03T13:07:08.551Z,99.90
2018-09-03T13:09:39.337Z,99.90
2018-09-03T13:12:10.108Z,99.90
2018-09-03T13:14:40.840Z,99.90
2018-09-03T13:17:11.689Z,99.90
2018-09-03T13:19:42.995Z,99.90
2018-09-03T13:22:14.148Z,99.90
2018-09-03T13:24:45.148Z,99.90
2018-09-03T13:27:16.048Z,98.30
2018-09-03T13:29:46.900Z,91.30
2018-09-03T13:32:17.605Z,99.00
2018-09-03T13:34:48.346Z,93.60
2018-09-03T13:37:19.184Z,94.50
2018-09-03T13:39:50.242Z,77.20
2018-09-03T13:42:21.018Z,86.90
2018-09-03T13:44:51.864Z,61.90
2018-09-03T13:47:22.837Z,55.10
2018-09-03T13:49:53.558Z,93.00
2018-09-03T13:52:24.133Z,82.70
2018-09-03T13:54:55.442Z,97.50
2018-09-03T13:57:26.354Z,79.50
2018-09-03T13:59:56.971Z,89.60
2018-09-03T14:02:27.571Z,39.10
2018-09-03T14:04:58.365Z,31.50
2018-09-03T14:07:29.429Z,34.30
2018-09-03T14:10:00.459Z,30.10
2018-09-03T14:12:31.346Z,30.70
2018-09-03T14:15:02.253Z,27.00
2018-09-03T14:17:33.249Z,15.60
2018-09-03T14:20:04.652Z,18.40
2018-09-03T14:22:35.490Z,58.90
2018-09-03T14:25:06.251Z,14.10
2018-09-03T14:27:36.799Z,17.10
2018-09-03T14:30:08.159Z,2.90
2018-09-03T14:32:39.015Z,15.00
2018-09-03T14:35:09.919Z,6.70
2018-09-03T14:37:40.614Z,22.70
2018-09-03T14:40:11.500Z,12.50
2018-09-03T14:42:42.327Z,1.00
2018-09-03T14:45:13.460Z,2.60
2018-09-03T14:47:44.357Z,11.80
2018-09-03T14:50:15.039Z,1.00
2018-09-03T14:52:46.125Z,1.00
2018-09-03T14:55:16.738Z,1.00
2018-09-03T14:57:47.547Z,1.00
2018-09-03T15:00:18.757Z,1.00
2018-09-03T15:02:49.610Z,1.00
2018-09-03T15:05:20.676Z,1.00
2018-09-03T15:07:51.350Z,1.00
2018-09-03T15:10:22.572Z,1.00
2018-09-03T15:12:53.199Z,1.00
2018-09-03T15:15:23.896Z,1.00
2018-09-03T15:17:54.524Z,1.00
2018-09-03T15:20:25.314Z,1.00
2018-09-03T15:22:56.306Z,1.00
2018-09-03T15:25:27.230Z,1.00
2018-09-03T15:27:58.274Z,1.00
2018-09-03T15:30:29.346Z,16.50
2018-09-03T15:33:00.065Z,8.00
2018-09-03T15:35:30.825Z,32.00
2018-09-03T15:38:01.689Z,34.70
2018-09-03T15:40:32.771Z,44.60
2018-09-03T15:43:03.539Z,55.60
2018-09-03T15:45:34.491Z,50.10
2018-09-03T15:48:05.522Z,51.00
2018-09-03T15:50:36.325Z,54.40
2018-09-03T15:53:07.057Z,51.00
2018-09-03T15:55:37.791Z,56.10
2018-09-03T15:58:08.462Z,68.40
2018-09-03T16:00:39.192Z,88.30
2018-09-03T16:03:10.202Z,92.50
2018-09-03T16:05:41.057Z,93.60
2018-09-03T16:08:12.010Z,63.00
2018-09-03T16:10:42.597Z,84.20
2018-09-03T16:13:13.585Z,99.90
2018-09-03T16:15:44.481Z,99.90
2018-09-03T16:18:15.121Z,99.90
2018-09-03T16:20:46.248Z,99.90
2018-09-03T16:23:17.162Z,99.90
2018-09-03T16:25:47.848Z,99.90
2018-09-03T16:28:18.601Z,99.90
2018-09-03T16:30:49.243Z,99.90
2018-09-03T16:33:20.305Z,99.90
2018-09-03T16:35:51.248Z,99.90
2018-09-03T16:38:22.272Z,99.90
2018-09-03T16:40:53.539Z,99.90
2018-09-03T16:43:24.121Z,99.90
2018-09-03T16:45:55.029Z,99.90
2018-09-03T16:48:26.038Z,99.90
2018-09-03T16:50:56.717Z,99.90
2018-09-03T16:53:27.536Z,99.90
2018-09-03T16:55:58.255Z,99.90
2018-09-03T16:58:29.073Z,99.90
2018-09-03T17:01:00.071Z,99.90
2018-09-03T17:03:30.435Z,99.90
2018-09-03T17:06:01.155Z,99.90
2018-09-03T17:08:31.914Z,99.90
2018-09-03T17:11:03.048Z,99.90
2018-09-03T17:13:33.738Z,99.90
2018-09-03T17:16:04.205Z,99.90
2018-09-03T17:18:35.473Z,99.90
2018-09-03T17:21:07.145Z,99.90
2018-09-03T17:23:37.441Z,99.90
2018-09-03T17:26:08.219Z,99.90
2018-09-03T17:28:38.438Z,99.90
2018-09-03T17:31:09.137Z,99.90
2018-09-03T17:33:39.172Z,99.90
2018-09-03T17:36:09.496Z,99.90
2018-09-03T17:38:40.006Z,99.90
2018-09-03T17:41:10.388Z,99.90
2018-09-03T17:43:40.596Z,99.90
2018-09-03T17:46:10.701Z,99.90
2018-09-03T17:48:40.833Z,99.90
2018-09-03T17:51:11.350Z,99.90
2018-09-03T17:53:41.616Z,99.90
2018-09-03T17:56:11.959Z,99.90
2018-09-03T17:58:42.440Z,99.90
2018-09-03T18:01:12.913Z,99.90
2018-09-03T18:03:43.150Z,99.90
2018-09-03T18:06:13.973Z,99.90
2018-09-03T18:08:44.260Z,99.90
2018-09-03T18:11:14.849Z,99.90
2018-09-03T18:13:45.327Z,99.90
2018-09-03T18:16:15.482Z,99.90
2018-09-03T18:18:46.435Z,99.90
2018-09-03T18:21:16.883Z,99.90
2018-09-03T18:23:47.024Z,99.90
2018-09-03T18:26:17.593Z,99.90
2018-09-03T18:28:48.411Z,99.90
2018-09-03T18:31:18.966Z,99.90
2018-09-03T18:33:49.903Z,99.90
2018-09-03T18:36:20.048Z,99.90
2018-09-03T18:38:50.507Z,99.90
2018-09-03T18:41:20.938Z,99.90
2018-09-03T18:43:51.672Z,99.90
2018-09-03T18:46:22.268Z,99.90
2018-09-03T18:48:53.093Z,1.00
2018-09-03T18:51:23.311Z,1.00
2018-09-03T18:53:53.687Z,1.00
2018-09-03T18:56:23.946Z,1.00
2018-09-03T18:58:54.255Z,1.00
2018-09-03T19:01:24.916Z,1.00
2018-09-03T19:03:55.230Z,1.00
2018-09-03T19:06:25.498Z,1.00
2018-09-03T19:08:55.886Z,1.00
2018-09-03T19:11:26.534Z,1.00
2018-09-03T19:13:56.971Z,1.00
2018-09-03T19:16:27.535Z,1.00
2018-09-03T19:18:58.147Z,1.00
2018-09-03T19:21:28.890Z,1.00
2018-09-03T19:23:59.363Z,1.00
2018-09-03T19:26:29.930Z,1.00
2018-09-03T19:29:01.091Z,1.00
2018-09-03T19:31:31.596Z,1.00
2018-09-03T19:34:02.446Z,1.00
2018-09-03T19:36:33.085Z,1.00
2018-09-03T19:39:04.882Z,1.00
2018-09-03T19:41:35.591Z,1.00
2018-09-03T19:44:06.140Z,1.00
2018-09-03T19:46:36.419Z,1.00
2018-09-03T19:49:06.958Z,1.00
2018-09-03T19:51:37.689Z,1.00
2018-09-03T19:54:08.063Z,1.00
2018-09-03T19:56:38.814Z,1.00
2018-09-03T19:59:09.037Z,1.00
2018-09-03T20:01:40.983Z,1.00
2018-09-03T20:04:11.568Z,1.00
2018-09-03T20:06:41.778Z,1.00
2018-09-03T20:09:12.194Z,1.00
2018-09-03T20:11:42.885Z,1.00
2018-09-03T20:14:14.049Z,1.00
2018-09-03T20:16:44.234Z,1.00
2018-09-03T20:19:16.184Z,1.00
2018-09-03T20:21:46.454Z,1.00
2018-09-03T20:24:16.657Z,1.00
2018-09-03T20:26:47.519Z,1.00
2018-09-03T20:29:17.794Z,1.00
2018-09-03T20:31:48.733Z,1.00
2018-09-03T20:34:19.198Z,1.00
2018-09-03T20:36:49.424Z,1.00
2018-09-03T20:39:19.494Z,1.00
2018-09-03T20:41:49.891Z,1.00
2018-09-03T20:44:20.117Z,1.00
2018-09-03T20:46:50.542Z,1.00
2018-09-03T20:49:20.675Z,1.00
2018-09-03T20:51:50.931Z,1.00
2018-09-03T20:54:21.453Z,1.00
2018-09-03T20:56:51.592Z,1.00
2018-09-03T20:59:22.150Z,1.00
2018-09-03T21:01:52.900Z,1.00
2018-09-03T21:04:23.981Z,1.00
2018-09-03T21:06:54.194Z,1.00
2018-09-03T21:09:24.748Z,1.00
2018-09-03T21:11:55.183Z,1.00
2018-09-03T21:14:25.727Z,1.00
2018-09-03T21:16:56.278Z,1.00
2018-09-03T21:19:26.753Z,1.00
2018-09-03T21:21:56.926Z,1.00
2018-09-03T21:24:27.487Z,1.00
2018-09-03T21:26:57.795Z,1.00
2018-09-03T21:29:28.062Z,1.00
2018-09-03T21:31:58.270Z,1.00
2018-09-03T21:34:28.463Z,1.00
2018-09-03T21:36:58.590Z,1.00
2018-09-03T21:39:29.424Z,1.00
2018-09-03T21:41:59.696Z,1.00
2018-09-03T21:44:30.078Z,1.00
2018-09-03T21:47:00.299Z,1.00
2018-09-03T21:49:30.873Z,1.00
2018-09-03T21:52:00.990Z,1.00
2018-09-03T21:54:31.545Z,1.00
2018-09-03T21:57:01.986Z,1.00
2018-09-03T21:59:32.612Z,1.00
2018-09-03T22:02:07.775Z,1.00
2018-09-03T22:04:41.816Z,1.00
2018-09-03T22:07:12.541Z,1.00
2018-09-03T22:09:43.239Z,1.00
2018-09-03T22:12:13.955Z,1.00
2018-09-03T22:14:44.109Z,1.00
2018-09-03T22:17:14.314Z,1.00
2018-09-03T22:19:44.604Z,1.00
2018-09-03T22:22:15.253Z,1.00
2018-09-03T22:24:45.488Z,1.00
2018-09-03T22:27:15.709Z,1.00
2018-09-03T22:29:46.039Z,1.00
2018-09-03T22:32:16.307Z,1.00
2018-09-03T22:34:46.619Z,1.00
2018-09-03T22:37:17.314Z,1.00
2018-09-03T22:39:47.770Z,1.00
2018-09-03T22:42:19.164Z,1.00
2018-09-03T22:44:50.200Z,1.00
2018-09-03T22:47:20.591Z,1.00
2018-09-03T22:49:51.193Z,1.00
2018-09-03T22:52:21.682Z,1.00
2018-09-03T22:54:52.149Z,1.00
2018-09-03T22:57:22.554Z,1.00
2018-09-03T22:59:52.740Z,1.00
2018-09-03T23:02:23.038Z,1.00
2018-09-03T23:04:53.372Z,1.00
2018-09-03T23:07:23.891Z,1.00
2018-09-03T23:09:54.093Z,1.00
2018-09-03T23:12:24.596Z,1.00
2018-09-03T23:14:55.526Z,1.00
2018-09-03T23:17:25.891Z,1.00
2018-09-03T23:19:56.117Z,1.00
2018-09-03T23:22:26.850Z,1.00
2018-09-03T23:24:57.009Z,1.00
2018-09-03T23:27:27.166Z,1.00
2018-09-03T23:29:57.877Z,1.00
2018-09-03T23:32:28.739Z,1.00
2018-09-03T23:34:58.856Z,1.00
2018-09-03T23:37:28.966Z,1.00
2018-09-03T23:39:59.035Z,1.00
2018-09-03T23:42:29.412Z,1.00
2018-09-03T23:44:59.708Z,1.00
2018-09-03T23:47:29.923Z,1.00
2018-09-03T23:50:00.360Z,1.00
2018-09-03T23:52:30.699Z,1.00
2018-09-03T23:55:00.787Z,1.00
2018-09-03T23:57:30.920Z,1.00
